createdAt,value
2018-07-01T00:01:14.908Z,54.76
2018-07-01T00:03:44.728Z,56.00
2018-07-01T00:06:14.532Z,55.89
2018-07-01T00:08:44.356Z,55.72
2018-07-01T00:11:14.252Z,55.62
2018-07-01T00:13:44.085Z,55.74
2018-07-01T00:16:14.506Z,56.14
2018-07-01T00:18:44.312Z,56.21
2018-07-01T00:21:14.195Z,56.03
2018-07-01T00:23:43.696Z,56.31
2018-07-01T00:26:13.444Z,56.55
2018-07-01T00:28:43.329Z,56.51
2018-07-01T00:31:13.157Z,56.92
2018-07-01T00:33:42.951Z,56.63
2018-07-01T00:36:12.736Z,57.50
2018-07-01T00:38:42.518Z,57.18
2018-07-01T00:41:12.820Z,57.19
2018-07-01T00:43:42.715Z,57.54
2018-07-01T00:46:12.436Z,58.28
2018-07-01T00:48:42.408Z,57.70
2018-07-01T00:51:12.264Z,58.38
2018-07-01T00:53:41.992Z,58.36
2018-07-01T00:56:11.870Z,58.11
2018-07-01T00:58:41.720Z,57.67
2018-07-01T01:01:11.470Z,58.09
2018-07-01T01:03:41.250Z,57.97
2018-07-01T01:06:11.077Z,57.99
2018-07-01T01:08:40.865Z,58.28
2018-07-01T01:11:10.676Z,58.88
2018-07-01T01:13:40.455Z,58.87
2018-07-01T01:16:10.368Z,58.33
2018-07-01T01:18:40.176Z,58.66
2018-07-01T01:21:10.103Z,58.34
2018-07-01T01:23:39.998Z,58.72
2018-07-01T01:26:09.837Z,58.62
2018-07-01T01:28:39.627Z,59.15
2018-07-01T01:31:09.473Z,59.46
2018-07-01T01:33:39.312Z,58.70
2018-07-01T01:36:09.193Z,59.37
2018-07-01T01:38:40.829Z,59.34
2018-07-01T01:42:15.466Z,59.56
2018-07-01T01:44:50.719Z,59.58
2018-07-01T01:47:27.333Z,59.91
2018-07-01T01:50:01.399Z,60.24
2018-07-01T01:53:34.029Z,59.64
2018-07-01T01:56:17.057Z,60.09
2018-07-01T01:59:51.251Z,60.13
2018-07-01T02:02:33.967Z,60.14
2018-07-01T02:05:10.730Z,60.35
2018-07-01T02:07:45.463Z,60.56
2018-07-01T02:10:16.519Z,60.88
2018-07-01T02:12:46.781Z,60.74
2018-07-01T02:15:20.335Z,61.71
2018-07-01T02:17:52.586Z,61.95
2018-07-01T02:20:25.908Z,61.80
2018-07-01T02:23:33.202Z,61.70
2018-07-01T02:26:03.757Z,61.40
2018-07-01T02:28:35.350Z,61.93
2018-07-01T02:31:05.381Z,61.64
2018-07-01T02:33:36.111Z,62.00
2018-07-01T02:36:07.883Z,62.20
2018-07-01T02:38:38.303Z,62.46
2018-07-01T02:41:08.172Z,63.16
2018-07-01T02:43:38.203Z,62.77
2018-07-01T02:46:08.900Z,62.42
2018-07-01T02:48:38.815Z,63.17
2018-07-01T02:51:09.810Z,63.02
2018-07-01T02:53:39.997Z,63.21
2018-07-01T02:56:09.606Z,62.87
2018-07-01T02:58:40.342Z,63.00
2018-07-01T03:01:11.276Z,63.55
2018-07-01T03:03:40.686Z,63.85
2018-07-01T03:06:15.448Z,63.92
2018-07-01T03:08:45.254Z,64.64
2018-07-01T03:11:16.375Z,64.77
2018-07-01T03:13:46.338Z,64.60
2018-07-01T03:16:16.258Z,64.59
2018-07-01T03:18:46.117Z,64.89
2018-07-01T03:21:16.175Z,64.34
2018-07-01T03:23:46.058Z,64.88
2018-07-01T03:26:16.309Z,65.29
2018-07-01T03:28:46.142Z,65.08
2018-07-01T03:31:16.497Z,65.21
2018-07-01T03:33:47.930Z,64.44
2018-07-01T03:36:18.061Z,64.28
2018-07-01T03:38:47.662Z,64.30
2018-07-01T03:41:17.418Z,64.54
2018-07-01T03:43:47.208Z,64.56
2018-07-01T03:46:17.710Z,63.55
2018-07-01T03:48:47.502Z,63.51
2018-07-01T03:51:17.393Z,63.79
2018-07-01T03:53:47.177Z,63.65
2018-07-01T03:56:17.017Z,63.75
2018-07-01T03:58:46.906Z,63.05
2018-07-01T04:01:16.957Z,64.12
2018-07-01T04:03:46.862Z,64.34
2018-07-01T04:06:16.796Z,64.35
2018-07-01T04:08:46.512Z,63.71
2018-07-01T04:11:16.309Z,63.77
2018-07-01T04:13:46.041Z,63.61
2018-07-01T04:16:15.563Z,63.79
2018-07-01T04:18:45.165Z,63.62
2018-07-01T04:21:14.907Z,63.59
2018-07-01T04:23:44.846Z,63.26
2018-07-01T04:26:14.616Z,63.30
2018-07-01T04:28:44.497Z,62.99
2018-07-01T04:31:14.373Z,62.48
2018-07-01T04:33:44.673Z,61.84
2018-07-01T04:36:14.472Z,61.71
2018-07-01T04:38:44.231Z,61.37
2018-07-01T04:41:14.114Z,61.42
2018-07-01T04:43:43.947Z,61.69
2018-07-01T04:46:13.819Z,61.32
2018-07-01T04:48:43.982Z,61.95
2018-07-01T04:51:13.796Z,61.54
2018-07-01T04:53:43.561Z,60.65
2018-07-01T04:56:12.969Z,60.76
2018-07-01T04:58:42.813Z,60.32
2018-07-01T05:01:12.630Z,60.30
2018-07-01T05:03:42.480Z,59.61
2018-07-01T05:06:12.300Z,60.00
2018-07-01T05:08:42.134Z,59.18
2018-07-01T05:11:11.862Z,59.09
2018-07-01T05:13:41.765Z,59.13
2018-07-01T05:16:11.664Z,58.73
2018-07-01T05:18:41.488Z,58.06
2018-07-01T05:21:11.358Z,58.00
2018-07-01T05:23:41.253Z,57.53
2018-07-01T05:26:11.101Z,56.08
2018-07-01T05:28:40.936Z,54.32
2018-07-01T05:31:10.694Z,54.55
2018-07-01T05:33:40.546Z,54.08
2018-07-01T05:36:10.361Z,54.06
2018-07-01T05:38:40.124Z,53.36
2018-07-01T05:41:09.951Z,53.42
2018-07-01T05:43:39.757Z,52.14
2018-07-01T05:46:09.621Z,51.90
2018-07-01T05:48:39.513Z,51.44
2018-07-01T05:51:09.437Z,51.43
2018-07-01T05:53:39.223Z,51.21
2018-07-01T05:56:09.132Z,50.50
2018-07-01T05:58:38.927Z,50.34
2018-07-01T06:01:08.874Z,50.38
2018-07-01T06:03:38.827Z,51.26
2018-07-01T06:06:08.830Z,51.11
2018-07-01T06:08:38.698Z,51.80
2018-07-01T06:11:08.573Z,51.45
2018-07-01T06:13:38.368Z,52.05
2018-07-01T06:16:08.220Z,51.73
2018-07-01T06:18:38.785Z,51.02
2018-07-01T06:21:08.304Z,50.62
2018-07-01T06:23:38.061Z,49.44
2018-07-01T06:26:07.995Z,49.85
2018-07-01T06:28:37.780Z,49.70
2018-07-01T06:31:10.387Z,49.62
2018-07-01T06:33:42.524Z,50.17
2018-07-01T06:36:12.484Z,50.73
2018-07-01T06:38:42.335Z,50.63
2018-07-01T06:41:12.154Z,51.13
2018-07-01T06:43:41.959Z,51.78
2018-07-01T06:46:11.827Z,52.21
2018-07-01T06:48:42.563Z,51.83
2018-07-01T06:51:12.383Z,50.17
2018-07-01T06:53:42.224Z,48.99
2018-07-01T06:56:12.068Z,49.36
2018-07-01T06:58:41.915Z,49.16
2018-07-01T07:01:11.869Z,48.62
2018-07-01T07:03:41.657Z,47.53
2018-07-01T07:06:11.531Z,45.94
2018-07-01T07:08:41.309Z,44.83
2018-07-01T07:11:11.296Z,45.31
2018-07-01T07:13:41.632Z,44.97
2018-07-01T07:16:13.937Z,45.90
2018-07-01T07:18:44.863Z,46.36
2018-07-01T07:21:17.199Z,46.61
2018-07-01T07:23:51.100Z,46.68
2018-07-01T07:26:21.935Z,46.81
2018-07-01T07:28:54.596Z,45.50
2018-07-01T07:31:25.488Z,44.74
2018-07-01T07:33:56.033Z,43.40
2018-07-01T07:36:27.116Z,44.19
2018-07-01T07:38:56.936Z,44.16
2018-07-01T07:41:26.759Z,46.05
2018-07-01T07:43:56.629Z,45.26
2018-07-01T07:46:27.236Z,44.63
2018-07-01T07:48:58.542Z,44.31
2018-07-01T07:51:28.498Z,44.79
2018-07-01T07:53:58.538Z,45.00
2018-07-01T07:56:29.184Z,45.32
2018-07-01T07:58:59.553Z,44.81
2018-07-01T08:01:29.572Z,43.20
2018-07-01T08:03:59.678Z,43.85
2018-07-01T08:06:31.225Z,42.64
2018-07-01T08:09:02.281Z,42.22
2018-07-01T08:11:34.143Z,41.18
2018-07-01T08:14:04.215Z,40.83
2018-07-01T08:16:34.597Z,38.70
2018-07-01T08:19:04.664Z,38.24
2018-07-01T08:21:34.783Z,38.95
2018-07-01T08:24:04.860Z,39.13
2018-07-01T08:26:34.983Z,39.73
2018-07-01T08:29:05.023Z,38.37
2018-07-01T08:31:35.388Z,39.44
2018-07-01T08:34:05.504Z,39.71
2018-07-01T08:36:35.976Z,38.70
2018-07-01T08:39:09.831Z,37.73
2018-07-01T08:42:48.941Z,36.14
2018-07-01T08:45:18.828Z,36.04
2018-07-01T08:47:49.319Z,35.45
2018-07-01T08:50:19.266Z,35.11
2018-07-01T08:52:49.123Z,34.66
2018-07-01T08:55:20.015Z,35.22
2018-07-01T08:57:49.831Z,34.62
2018-07-01T09:00:19.860Z,35.13
2018-07-01T09:02:49.695Z,33.56
2018-07-01T09:05:19.555Z,32.59
2018-07-01T09:07:49.430Z,31.84
2018-07-01T09:10:19.307Z,33.23
2018-07-01T09:12:49.242Z,35.87
2018-07-01T09:15:20.034Z,36.69
2018-07-01T09:17:50.731Z,36.59
2018-07-01T09:20:21.453Z,35.12
2018-07-01T09:22:51.661Z,35.78
2018-07-01T09:25:22.877Z,35.78
2018-07-01T09:27:52.851Z,36.28
2018-07-01T09:30:24.228Z,35.36
2018-07-01T09:32:54.910Z,35.18
2018-07-01T09:35:24.992Z,35.25
2018-07-01T09:37:54.994Z,35.93
2018-07-01T09:40:24.916Z,36.48
2018-07-01T09:42:54.739Z,37.56
2018-07-01T09:45:25.696Z,38.98
2018-07-01T09:47:56.120Z,39.41
2018-07-01T09:50:27.087Z,39.37
2018-07-01T09:52:56.861Z,40.00
2018-07-01T09:55:26.788Z,39.75
2018-07-01T09:57:56.871Z,39.51
2018-07-01T10:00:27.633Z,37.46
2018-07-01T10:02:57.444Z,35.78
2018-07-01T10:05:27.420Z,35.77
2018-07-01T10:07:57.878Z,35.67
2018-07-01T10:10:29.463Z,34.27
2018-07-01T10:12:59.689Z,35.87
2018-07-01T10:15:29.900Z,35.77
2018-07-01T10:17:59.934Z,35.79
2018-07-01T10:20:30.048Z,37.83
2018-07-01T10:23:00.093Z,38.58
2018-07-01T10:25:31.271Z,39.41
2018-07-01T10:28:01.152Z,38.09
2018-07-01T10:30:31.395Z,37.97
2018-07-01T10:33:02.183Z,36.95
2018-07-01T10:35:33.647Z,34.72
2018-07-01T10:38:03.485Z,33.34
2018-07-01T10:40:33.399Z,33.56
2018-07-01T10:43:03.210Z,32.31
2018-07-01T10:45:33.323Z,31.99
2018-07-01T10:48:04.855Z,30.85
2018-07-01T10:50:36.439Z,32.15
2018-07-01T10:53:06.822Z,32.03
2018-07-01T10:55:36.837Z,31.24
2018-07-01T10:58:08.047Z,30.92
2018-07-01T11:00:38.038Z,30.88
2018-07-01T11:03:09.059Z,30.98
2018-07-01T11:05:39.997Z,31.58
2018-07-01T11:08:09.962Z,31.57
2018-07-01T11:10:40.060Z,32.80
2018-07-01T11:13:10.191Z,32.75
2018-07-01T11:15:41.038Z,32.85
2018-07-01T11:18:11.319Z,33.52
2018-07-01T11:20:41.227Z,32.89
2018-07-01T11:23:11.829Z,32.85
2018-07-01T11:25:42.858Z,32.13
2018-07-01T11:28:14.219Z,31.96
2018-07-01T11:30:44.262Z,31.19
2018-07-01T11:33:14.502Z,29.95
2018-07-01T11:35:45.301Z,30.52
2018-07-01T11:38:16.070Z,30.52
2018-07-01T11:40:47.010Z,29.52
2018-07-01T11:43:17.390Z,30.21
2018-07-01T11:45:47.746Z,29.00
2018-07-01T11:48:20.660Z,29.04
2018-07-01T11:50:50.680Z,28.40
2018-07-01T11:53:21.899Z,29.35
2018-07-01T11:55:51.962Z,28.28
2018-07-01T11:58:24.981Z,27.93
2018-07-01T12:00:54.962Z,27.76
2018-07-01T12:03:25.712Z,26.54
2018-07-01T12:05:55.746Z,25.80
2018-07-01T12:08:25.679Z,27.60
2018-07-01T12:10:55.746Z,26.94
2018-07-01T12:13:26.672Z,27.45
2018-07-01T12:15:56.557Z,27.28
2018-07-01T12:18:26.362Z,25.71
2018-07-01T12:20:56.256Z,26.93
2018-07-01T12:23:26.250Z,26.96
2018-07-01T12:25:56.018Z,27.58
2018-07-01T12:28:25.992Z,27.38
2018-07-01T12:30:56.901Z,28.17
2018-07-01T12:33:26.964Z,27.82
2018-07-01T12:35:56.950Z,28.22
2018-07-01T12:38:27.085Z,28.02
2018-07-01T12:40:56.947Z,27.96
2018-07-01T12:43:26.866Z,26.32
2018-07-01T12:45:56.644Z,26.70
2018-07-01T12:48:27.650Z,25.07
2018-07-01T12:50:58.073Z,24.64
2018-07-01T12:53:28.228Z,25.71
2018-07-01T12:55:58.392Z,25.00
2018-07-01T12:58:28.848Z,26.26
2018-07-01T13:00:58.911Z,26.63
2018-07-01T13:03:29.759Z,26.97
2018-07-01T13:05:59.722Z,26.53
2018-07-01T13:08:29.602Z,25.73
2018-07-01T13:10:59.485Z,25.56
2018-07-01T13:13:30.000Z,25.90
2018-07-01T13:15:59.840Z,25.27
2018-07-01T13:18:31.258Z,26.38
2018-07-01T13:21:01.813Z,26.31
2018-07-01T13:23:33.092Z,25.55
2018-07-01T13:26:03.349Z,24.91
2018-07-01T13:28:34.030Z,24.98
2018-07-01T13:31:04.520Z,26.56
2018-07-01T13:33:34.827Z,26.17
2018-07-01T13:36:05.381Z,26.61
2018-07-01T13:38:36.504Z,28.29
2018-07-01T13:41:07.562Z,28.56
2018-07-01T13:43:37.897Z,27.45
2018-07-01T13:46:08.619Z,25.72
2018-07-01T13:48:39.330Z,26.53
2018-07-01T13:51:09.620Z,26.46
2018-07-01T13:53:39.786Z,27.01
2018-07-01T13:56:10.323Z,26.37
2018-07-01T13:58:41.595Z,26.38
2018-07-01T14:01:11.481Z,26.51
2018-07-01T14:03:41.454Z,26.72
2018-07-01T14:06:11.419Z,27.04
2018-07-01T14:08:41.486Z,26.48
2018-07-01T14:11:11.383Z,25.56
2018-07-01T14:13:41.132Z,24.18
2018-07-01T14:16:11.825Z,24.81
2018-07-01T14:18:41.651Z,25.79
2018-07-01T14:21:11.603Z,25.90
2018-07-01T14:23:41.806Z,25.22
2018-07-01T14:26:12.180Z,26.09
2018-07-01T14:28:49.789Z,26.85
2018-07-01T14:31:21.653Z,26.01
2018-07-01T14:33:51.439Z,26.59
2018-07-01T14:36:21.237Z,25.44
2018-07-01T14:38:51.085Z,24.81
2018-07-01T14:41:20.905Z,24.93
2018-07-01T14:43:50.870Z,24.05
2018-07-01T14:46:30.999Z,25.18
2018-07-01T14:49:00.964Z,25.83
2018-07-01T14:51:30.784Z,26.65
2018-07-01T14:54:00.664Z,27.27
2018-07-01T14:56:30.746Z,28.06
2018-07-01T14:59:00.531Z,28.24
2018-07-01T15:01:30.421Z,29.30
2018-07-01T15:04:00.279Z,28.58
2018-07-01T15:06:30.152Z,28.91
2018-07-01T15:09:00.026Z,27.71
2018-07-01T15:11:29.790Z,27.37
2018-07-01T15:13:59.645Z,26.42
2018-07-01T15:16:29.427Z,25.79
2018-07-01T15:18:59.325Z,25.23
2018-07-01T15:21:41.926Z,24.80
2018-07-01T15:24:12.046Z,26.08
2018-07-01T15:26:42.243Z,25.95
2018-07-01T15:29:12.663Z,26.30
2018-07-01T15:31:42.958Z,26.27
2018-07-01T15:34:12.905Z,26.03
2018-07-01T15:36:43.735Z,26.62
2018-07-01T15:39:13.659Z,27.57
2018-07-01T15:41:45.498Z,26.25
2018-07-01T15:44:16.332Z,26.06
2018-07-01T15:46:46.424Z,25.77
2018-07-01T15:49:16.683Z,26.29
2018-07-01T15:51:46.922Z,26.45
2018-07-01T15:54:17.062Z,26.59
2018-07-01T15:56:48.244Z,26.37
2018-07-01T15:59:19.472Z,27.07
2018-07-01T16:01:53.872Z,27.21
2018-07-01T16:04:25.916Z,27.43
2018-07-01T16:06:56.296Z,27.66
2018-07-01T16:09:27.297Z,27.21
2018-07-01T16:11:58.614Z,26.74
2018-07-01T16:14:28.749Z,25.82
2018-07-01T16:16:58.602Z,26.28
2018-07-01T16:19:30.076Z,27.44
2018-07-01T16:21:59.929Z,27.71
2018-07-01T16:24:29.740Z,28.41
2018-07-01T16:27:04.536Z,29.31
2018-07-01T16:29:34.305Z,29.17
2018-07-01T16:32:05.378Z,30.22
2018-07-01T16:34:35.393Z,30.37
2018-07-01T16:37:05.280Z,30.47
2018-07-01T16:39:36.156Z,29.91
2018-07-01T16:42:06.095Z,30.40
2018-07-01T16:44:35.974Z,31.11
2018-07-01T16:47:07.524Z,30.15
2018-07-01T16:49:37.756Z,29.17
2018-07-01T16:52:08.031Z,28.35
2018-07-01T16:54:37.892Z,26.65
2018-07-01T16:57:07.729Z,26.56
2018-07-01T16:59:37.731Z,26.61
2018-07-01T17:02:10.906Z,25.55
2018-07-01T17:04:41.466Z,25.61
2018-07-01T17:07:12.106Z,26.37
2018-07-01T17:09:42.492Z,28.73
2018-07-01T17:12:12.515Z,29.35
2018-07-01T17:14:43.027Z,28.02
2018-07-01T17:17:14.238Z,28.17
2018-07-01T17:19:44.340Z,28.52
2018-07-01T17:22:15.260Z,26.79
2018-07-01T17:24:47.010Z,25.89
2018-07-01T17:27:17.683Z,25.75
2018-07-01T17:29:48.205Z,26.07
2018-07-01T17:33:25.758Z,26.80
2018-07-01T17:35:55.523Z,25.42
2018-07-01T17:38:25.849Z,25.50
2018-07-01T17:40:56.784Z,28.17
2018-07-01T17:43:26.618Z,29.48
2018-07-01T17:45:57.189Z,30.62
2018-07-01T17:48:27.156Z,30.76
2018-07-01T17:50:57.020Z,32.93
2018-07-01T17:53:43.991Z,32.64
2018-07-01T17:56:13.929Z,33.81
2018-07-01T17:58:44.884Z,33.78
2018-07-01T18:01:15.158Z,34.37
2018-07-01T18:03:45.754Z,34.69
2018-07-01T18:06:16.012Z,34.66
2018-07-01T18:08:46.035Z,35.05
2018-07-01T18:11:16.430Z,34.73
2018-07-01T18:13:46.361Z,34.99
2018-07-01T18:16:16.629Z,35.12
2018-07-01T18:18:46.693Z,33.90
2018-07-01T18:21:20.514Z,33.78
2018-07-01T18:24:19.500Z,33.92
2018-07-01T18:26:17.128Z,34.87
2018-07-01T18:28:59.153Z,34.72
2018-07-01T18:34:01.445Z,35.77
2018-07-01T18:36:31.526Z,35.42
2018-07-01T18:39:02.683Z,35.28
2018-07-01T18:41:34.861Z,35.44
2018-07-01T18:44:05.599Z,36.27
2018-07-01T18:46:36.357Z,36.17
2018-07-01T18:49:06.602Z,36.51
2018-07-01T18:51:36.590Z,36.28
2018-07-01T18:54:09.359Z,36.81
2018-07-01T18:56:40.745Z,36.96
2018-07-01T18:59:10.679Z,37.42
2018-07-01T19:01:40.497Z,37.14
2018-07-01T19:04:12.243Z,37.81
2018-07-01T19:06:46.103Z,38.10
2018-07-01T19:09:16.253Z,38.55
2018-07-01T19:12:03.441Z,38.78
2018-07-01T19:14:33.561Z,39.35
2018-07-01T19:17:07.523Z,39.56
2018-07-01T19:19:42.471Z,40.51
2018-07-01T19:22:12.727Z,40.83
2018-07-01T19:24:43.603Z,41.53
2018-07-01T19:27:14.392Z,41.63
2018-07-01T19:29:44.971Z,41.76
2018-07-01T19:32:16.907Z,41.91
2018-07-01T19:34:46.935Z,42.32
2018-07-01T19:37:17.232Z,42.80
2018-07-01T19:39:52.383Z,43.26
2018-07-01T19:42:24.764Z,43.27
2018-07-01T19:44:56.479Z,43.24
2018-07-01T19:47:26.994Z,43.67
2018-07-01T19:49:56.848Z,44.42
2018-07-01T19:52:27.224Z,44.26
2018-07-01T19:54:57.095Z,44.23
2018-07-01T19:57:27.373Z,45.19
2018-07-01T19:59:56.835Z,45.58
2018-07-01T20:02:28.148Z,45.24
2018-07-01T20:04:58.197Z,45.35
2018-07-01T20:07:28.162Z,46.34
2018-07-01T20:09:58.059Z,46.14
2018-07-01T20:12:28.001Z,47.19
2018-07-01T20:14:57.857Z,47.56
2018-07-01T20:17:28.405Z,47.93
2018-07-01T20:19:58.342Z,48.24
2018-07-01T20:22:28.182Z,47.82
2018-07-01T20:24:58.199Z,47.43
2018-07-01T20:27:28.165Z,48.02
2018-07-01T20:29:58.499Z,48.85
2018-07-01T20:32:28.659Z,49.24
2018-07-01T20:34:58.625Z,49.61
2018-07-01T20:37:28.230Z,49.42
2018-07-01T20:39:58.198Z,49.66
2018-07-01T20:42:27.997Z,49.88
2018-07-01T20:44:58.132Z,50.21
2018-07-01T20:47:28.003Z,50.00
2018-07-01T20:49:58.490Z,50.18
2018-07-01T20:52:29.199Z,51.11
2018-07-01T20:54:59.222Z,50.69
2018-07-01T20:57:29.023Z,51.93
2018-07-01T20:59:58.866Z,51.92
2018-07-01T21:02:28.532Z,51.99
2018-07-01T21:04:58.326Z,51.66
2018-07-01T21:07:28.229Z,51.50
2018-07-01T21:09:58.167Z,52.19
2018-07-01T21:12:28.031Z,52.38
2018-07-01T21:14:58.378Z,52.42
2018-07-01T21:17:28.221Z,52.52
2018-07-01T21:19:58.067Z,55.45
2018-07-01T21:22:27.902Z,54.53
2018-07-01T21:24:57.401Z,53.83
2018-07-01T21:27:27.236Z,53.93
2018-07-01T21:29:57.034Z,54.70
2018-07-01T21:32:26.962Z,55.01
2018-07-01T21:34:56.860Z,55.50
2018-07-01T21:37:26.893Z,55.27
2018-07-01T21:39:56.660Z,56.86
2018-07-01T21:42:26.506Z,56.05
2018-07-01T21:44:56.330Z,56.58
2018-07-01T21:47:26.244Z,56.62
2018-07-01T21:49:56.660Z,57.38
2018-07-01T21:52:26.490Z,57.14
2018-07-01T21:54:56.342Z,57.94
2018-07-01T21:57:26.222Z,58.06
2018-07-01T21:59:56.004Z,58.25
2018-07-01T22:02:25.862Z,57.54
2018-07-01T22:04:55.823Z,57.42
2018-07-01T22:07:25.341Z,57.29
2018-07-01T22:09:55.473Z,57.52
2018-07-01T22:12:42.129Z,57.58
2018-07-01T22:15:28.728Z,57.35
2018-07-01T22:17:58.571Z,57.65
2018-07-01T22:20:28.549Z,57.32
2018-07-01T22:22:58.358Z,57.07
2018-07-01T22:25:28.305Z,57.72
2018-07-01T22:27:58.734Z,57.79
2018-07-01T22:30:28.593Z,57.80
2018-07-01T22:32:58.485Z,57.84
2018-07-01T22:35:28.345Z,58.43
2018-07-01T22:37:58.247Z,58.58
2018-07-01T22:40:28.085Z,59.14
2018-07-01T22:42:58.088Z,59.37
2018-07-01T22:45:27.974Z,59.14
2018-07-01T22:47:57.817Z,59.06
2018-07-01T22:50:27.616Z,59.38
2018-07-01T22:52:57.548Z,59.00
2018-07-01T22:55:27.414Z,59.26
2018-07-01T22:57:57.222Z,59.94
2018-07-01T23:00:27.195Z,59.91
2018-07-01T23:03:15.273Z,59.63
2018-07-01T23:05:45.173Z,61.01
2018-07-01T23:08:15.026Z,60.37
2018-07-01T23:10:44.855Z,60.05
2018-07-01T23:13:14.669Z,60.17
2018-07-01T23:15:44.534Z,60.85
2018-07-01T23:18:14.417Z,60.42
2018-07-01T23:20:44.211Z,60.93
2018-07-01T23:23:14.110Z,60.74
2018-07-01T23:25:43.893Z,61.36
2018-07-01T23:28:13.772Z,61.02
2018-07-01T23:30:43.642Z,60.80
2018-07-01T23:33:13.380Z,61.02
2018-07-01T23:35:43.280Z,60.92
2018-07-01T23:38:13.137Z,60.79
2018-07-01T23:40:42.902Z,61.54
2018-07-01T23:43:12.744Z,61.68
2018-07-01T23:45:42.717Z,61.73
2018-07-01T23:48:12.605Z,62.08
2018-07-01T23:50:42.531Z,61.98
2018-07-01T23:53:12.357Z,62.78
2018-07-01T23:55:42.272Z,62.84
2018-07-01T23:58:12.101Z,63.48
